Time;durP1;ratioP1;P1;durP2;ratioP2;P2;SDS_P1;SDS_P2;PMS_P1;PMS_P2;Temp;Humidity;BMP_temperature;BMP_pressure;BME280_temperature;BME280_humidity;BME280_pressure;Samples;Min_cycle;Max_cycle;Signal;HPM_P1;HPM_P2
2021/04/28 00:02:23;;;;;;;1999.90;999.90;;;8.70;62.80;;;;;;5036770;28;20080;-93
2021/04/28 00:04:50;;;;;;;1999.90;999.90;;;8.70;62.40;;;;;;5036858;28;20050;-92
2021/04/28 00:07:17;;;;;;;1999.90;999.90;;;8.60;63.20;;;;;;5037090;28;20550;-92
2021/04/28 00:09:44;;;;;;;1999.90;999.90;;;8.50;63.30;;;;;;5036909;28;20053;-92
2021/04/28 00:12:11;;;;;;;1999.90;999.90;;;8.50;63.40;;;;;;5036936;28;20496;-93
2021/04/28 00:14:38;;;;;;;1999.90;999.90;;;8.50;63.40;;;;;;5036492;28;20077;-92
2021/04/28 00:17:06;;;;;;;1999.90;999.90;;;8.50;63.60;;;;;;5036583;28;20393;-93
2021/04/28 00:19:33;;;;;;;1999.90;999.90;;;8.40;63.90;;;;;;5036417;28;20396;-93
2021/04/28 00:22:00;;;;;;;1999.90;999.90;;;8.40;64.00;;;;;;5036781;28;20057;-92
2021/04/28 00:24:27;;;;;;;1999.90;999.90;;;8.40;64.60;;;;;;5036580;28;20046;-94
2021/04/28 00:26:54;;;;;;;1999.90;999.90;;;8.40;64.50;;;;;;5036382;28;20100;-92
2021/04/28 00:29:22;;;;;;;1999.90;999.90;;;8.40;64.50;;;;;;5037232;28;20132;-92
2021/04/28 00:31:49;;;;;;;1999.90;999.90;;;8.30;64.60;;;;;;5036352;28;20463;-93
2021/04/28 00:34:17;;;;;;;1999.90;999.90;;;8.30;64.70;;;;;;5036481;28;20041;-92
2021/04/28 00:36:44;;;;;;;1999.90;999.90;;;8.20;64.70;;;;;;5036838;28;20128;-94
2021/04/28 00:39:11;;;;;;;1999.90;999.90;;;8.20;65.10;;;;;;5039533;28;20053;-93
2021/04/28 00:41:38;;;;;;;1999.90;999.90;;;8.20;64.90;;;;;;5043871;28;20057;-92
2021/04/28 00:44:06;;;;;;;1999.90;999.90;;;8.20;64.70;;;;;;5038761;28;20072;-92
2021/04/28 00:46:33;;;;;;;1999.90;999.90;;;8.10;65.40;;;;;;5041535;28;20195;-92
2021/04/28 00:49:00;;;;;;;1999.90;999.90;;;8.10;65.20;;;;;;5040100;28;20060;-93
2021/04/28 00:51:28;;;;;;;1999.90;999.90;;;8.00;65.60;;;;;;5040097;28;20068;-93
2021/04/28 00:53:55;;;;;;;1999.90;999.90;;;8.00;66.10;;;;;;5040134;28;20053;-93
2021/04/28 00:56:22;;;;;;;1999.90;999.90;;;8.00;66.10;;;;;;5039777;28;20068;-92
2021/04/28 00:58:49;;;;;;;1999.90;999.90;;;7.90;66.50;;;;;;5040067;28;20084;-92
2021/04/28 01:01:16;;;;;;;1999.90;999.90;;;7.90;66.40;;;;;;5055690;28;20036;-92
2021/04/28 01:03:44;;;;;;;1999.90;999.90;;;7.90;66.70;;;;;;5066570;28;20043;-92
2021/04/28 01:06:12;;;;;;;1999.90;999.90;;;7.90;66.90;;;;;;5061054;28;20045;-94
2021/04/28 01:08:41;;;;;;;1999.90;999.90;;;7.90;66.80;;;;;;5055108;28;20037;-92
2021/04/28 01:11:08;;;;;;;1999.90;999.90;;;7.80;66.70;;;;;;5043800;28;20457;-92
2021/04/28 01:13:36;;;;;;;1999.90;999.90;;;7.80;67.10;;;;;;5050025;28;20583;-93
2021/04/28 01:16:04;;;;;;;1999.90;999.90;;;7.80;67.20;;;;;;5057188;28;20144;-92
2021/04/28 01:18:31;;;;;;;1999.90;999.90;;;7.70;67.30;;;;;;5049510;28;20053;-92
2021/04/28 01:20:58;;;;;;;1999.90;999.90;;;7.80;67.30;;;;;;5045359;28;20116;-92
2021/04/28 01:23:26;;;;;;;1999.90;999.90;;;7.70;67.50;;;;;;5034098;28;20056;-92
2021/04/28 01:25:53;;;;;;;1999.90;999.90;;;7.70;68.00;;;;;;5041137;28;20080;-91
2021/04/28 01:28:21;;;;;;;1999.90;999.90;;;7.70;67.80;;;;;;5040293;28;20134;-91
2021/04/28 01:30:52;;;;;;;1999.90;999.90;;;7.60;67.80;;;;;;5056827;28;20044;-92
2021/04/28 01:33:24;;;;;;;1999.90;999.90;;;7.60;68.10;;;;;;5060450;28;20084;-92
2021/04/28 01:35:54;;;;;;;1999.90;999.90;;;7.60;68.30;;;;;;5056754;28;20045;-92
2021/04/28 01:38:22;;;;;;;1999.90;999.90;;;7.60;68.30;;;;;;5056038;28;20045;-92
2021/04/28 01:40:51;;;;;;;1999.90;999.90;;;7.50;68.40;;;;;;5057063;28;20053;-92
2021/04/28 01:43:26;;;;;;;1999.90;999.90;;;7.50;68.70;;;;;;5067710;28;20060;-92
2021/04/28 01:45:54;;;;;;;;;;;7.50;68.50;;;;;;5032821;28;20069;-91
2021/04/28 01:48:21;;;;;;;1999.90;999.90;;;7.50;68.50;;;;;;5047758;28;20346;-92
2021/04/28 01:50:50;;;;;;;1999.90;999.90;;;7.40;69.10;;;;;;5037197;28;20046;-93
2021/04/28 01:53:21;;;;;;;1999.90;999.90;;;7.40;69.20;;;;;;5034829;28;20496;-92
2021/04/28 01:55:53;;;;;;;1999.90;999.90;;;7.30;69.00;;;;;;5033796;28;20469;-93
2021/04/28 01:58:21;;;;;;;1999.90;999.90;;;7.30;69.60;;;;;;5034729;28;20073;-93
2021/04/28 02:00:48;;;;;;;1999.90;999.90;;;7.30;69.70;;;;;;5035267;28;20120;-91
2021/04/28 02:03:16;;;;;;;1999.90;999.90;;;7.30;70.00;;;;;;5034778;28;20056;-92
2021/04/28 02:05:43;;;;;;;1999.90;999.90;;;7.30;69.80;;;;;;5035285;28;20076;-92
2021/04/28 02:08:11;;;;;;;1999.90;999.90;;;7.30;70.00;;;;;;5034776;28;20447;-92
2021/04/28 02:10:38;;;;;;;1999.90;999.90;;;7.30;70.00;;;;;;5034580;28;20498;-92
2021/04/28 02:13:08;;;;;;;1999.90;999.90;;;7.20;69.90;;;;;;5047408;28;20484;-93
2021/04/28 02:15:35;;;;;;;1999.90;999.90;;;7.20;70.60;;;;;;5034378;28;20085;-92
2021/04/28 02:18:05;;;;;;;1999.90;999.90;;;7.20;70.60;;;;;;5034569;28;20176;-92
2021/04/28 02:20:32;;;;;;;1999.90;999.90;;;7.10;70.70;;;;;;5034363;28;20540;-92
2021/04/28 02:23:02;;;;;;;1999.90;999.90;;;7.10;71.10;;;;;;5034627;28;20059;-92
2021/04/28 02:25:29;;;;;;;1999.90;999.90;;;7.10;70.90;;;;;;5034324;28;20388;-92
2021/04/28 02:27:56;;;;;;;1999.90;999.90;;;7.00;71.50;;;;;;5034857;28;20050;-92
2021/04/28 02:30:26;;;;;;;1999.90;999.90;;;6.90;71.70;;;;;;5034137;28;20052;-92
2021/04/28 02:32:54;;;;;;;1999.90;999.90;;;7.00;71.80;;;;;;5034510;28;20073;-92
2021/04/28 02:35:24;;;;;;;1999.90;999.90;;;6.90;72.70;;;;;;5034611;28;20045;-92
2021/04/28 02:37:55;;;;;;;1999.90;999.90;;;6.90;72.10;;;;;;5036296;28;20148;-93
2021/04/28 02:40:22;;;;;;;1999.90;999.90;;;6.90;72.30;;;;;;5050518;28;20057;-91
2021/04/28 02:42:50;;;;;;;1999.90;999.90;;;6.80;72.20;;;;;;5046061;28;20041;-92
2021/04/28 02:45:20;;;;;;;1999.90;999.90;;;6.80;72.90;;;;;;5035094;28;20404;-93
2021/04/28 02:47:50;;;;;;;1999.90;999.90;;;6.80;73.40;;;;;;5034632;28;20092;-92
2021/04/28 02:50:20;;;;;;;1999.90;999.90;;;6.70;73.60;;;;;;5034228;28;20141;-92
2021/04/28 02:52:49;;;;;;;1999.90;999.90;;;6.70;74.00;;;;;;5033839;28;20046;-92
2021/04/28 02:55:17;;;;;;;1999.90;999.90;;;6.70;74.20;;;;;;5036583;28;20069;-94
2021/04/28 02:57:46;;;;;;;1999.90;999.90;;;6.70;74.40;;;;;;5043755;28;20125;-91
2021/04/28 03:00:17;;;;;;;1999.90;999.90;;;6.70;74.80;;;;;;5033003;28;20049;-93
2021/04/28 03:02:46;;;;;;;1999.90;999.90;;;6.70;74.90;;;;;;5037238;28;20073;-92
2021/04/28 03:05:17;;;;;;;1999.90;999.90;;;6.70;75.10;;;;;;5037322;28;20140;-92
2021/04/28 03:07:44;;;;;;;1999.90;999.90;;;6.70;75.40;;;;;;5037726;28;20117;-92
2021/04/28 03:10:13;;;;;;;1999.90;999.90;;;6.60;75.70;;;;;;5038107;28;20084;-92
2021/04/28 03:12:41;;;;;;;1999.90;999.90;;;6.60;75.90;;;;;;5023142;28;20064;-92
2021/04/28 03:15:10;;;;;;;1999.90;999.90;;;6.60;76.20;;;;;;5038276;28;20476;-92
2021/04/28 03:17:37;;;;;;;1999.90;999.90;;;6.60;76.40;;;;;;5040524;28;20053;-91
2021/04/28 03:20:08;;;;;;;1999.90;999.90;;;6.60;76.70;;;;;;5046060;28;20141;-92
2021/04/28 03:22:37;;;;;;;1999.90;999.90;;;6.50;77.10;;;;;;5030805;28;20088;-92
2021/04/28 03:25:05;;;;;;;1999.90;999.90;;;6.50;77.50;;;;;;5037901;28;20045;-92
2021/04/28 03:27:32;;;;;;;1999.90;999.90;;;6.50;77.90;;;;;;5037345;28;20478;-91
2021/04/28 03:29:59;;;;;;;1999.90;999.90;;;6.50;78.10;;;;;;5037252;28;20077;-91
2021/04/28 03:32:26;;;;;;;1999.90;999.90;;;6.50;78.40;;;;;;5037527;28;20469;-93
2021/04/28 03:34:54;;;;;;;1999.90;999.90;;;6.50;78.70;;;;;;5036809;28;20128;-92
2021/04/28 03:37:21;;;;;;;1999.90;999.90;;;6.50;78.80;;;;;;5025029;28;20076;-92
2021/04/28 03:39:48;;;;;;;1999.90;999.90;;;6.40;79.10;;;;;;5037022;28;20145;-92
2021/04/28 03:42:16;;;;;;;1999.90;999.90;;;6.40;79.50;;;;;;5036848;28;20057;-93
2021/04/28 03:44:43;;;;;;;1999.90;999.90;;;6.40;80.00;;;;;;5037177;28;20177;-93
2021/04/28 03:47:10;;;;;;;1999.90;999.90;;;6.40;80.00;;;;;;5040204;28;20123;-93
2021/04/28 03:49:37;;;;;;;1999.90;999.90;;;6.40;80.00;;;;;;5037372;28;20049;-92
2021/04/28 03:52:04;;;;;;;1999.90;999.90;;;6.40;80.40;;;;;;5037692;28;20049;-93
2021/04/28 03:54:31;;;;;;;1999.90;999.90;;;6.30;80.40;;;;;;5039661;28;20459;-93
2021/04/28 03:56:59;;;;;;;1999.90;999.90;;;6.30;80.40;;;;;;5036754;28;20046;-92
2021/04/28 03:59:26;;;;;;;1999.90;999.90;;;6.30;80.70;;;;;;5036642;28;20103;-92
2021/04/28 04:01:54;;;;;;;1999.90;999.90;;;6.30;80.90;;;;;;5036706;28;20107;-92
2021/04/28 04:04:21;;;;;;;1999.90;999.90;;;6.30;81.10;;;;;;5036438;28;20053;-91
2021/04/28 04:06:48;;;;;;;1999.90;999.90;;;6.30;81.70;;;;;;5036676;28;20103;-93
2021/04/28 04:09:15;;;;;;;1999.90;999.90;;;6.30;81.40;;;;;;5036690;28;20080;-92
2021/04/28 04:11:42;;;;;;;1999.90;999.90;;;6.20;81.60;;;;;;5036507;28;20103;-92
2021/04/28 04:14:10;;;;;;;1999.90;999.90;;;6.20;82.10;;;;;;5036005;28;20053;-92
2021/04/28 04:16:37;;;;;;;1999.90;999.90;;;6.20;81.70;;;;;;5036070;28;20042;-92
2021/04/28 04:19:04;;;;;;;1999.90;999.90;;;6.20;82.10;;;;;;5036111;28;20148;-92
2021/04/28 04:21:32;;;;;;;1999.90;999.90;;;6.20;82.10;;;;;;5036291;28;20049;-92
2021/04/28 04:23:59;;;;;;;1999.90;999.90;;;6.10;83.00;;;;;;5036019;28;20060;-92
2021/04/28 04:26:26;;;;;;;1999.90;999.90;;;6.20;82.40;;;;;;5036104;28;20045;-92
2021/04/28 04:28:53;;;;;;;1999.90;999.90;;;6.10;82.70;;;;;;5035924;28;20156;-92
2021/04/28 04:31:31;;;;;;;1999.90;999.90;;;6.10;82.90;;;;;;5035972;28;20052;-93
2021/04/28 04:33:59;;;;;;;1999.90;999.90;;;6.10;83.30;;;;;;5041581;28;20053;-92
2021/04/28 04:36:26;;;;;;;1999.90;999.90;;;6.10;82.70;;;;;;5035687;28;20133;-93
2021/04/28 04:38:53;;;;;;;1999.90;999.90;;;6.00;83.10;;;;;;5035793;28;20049;-93
2021/04/28 04:41:20;;;;;;;1999.90;999.90;;;6.00;83.70;;;;;;5035603;28;20136;-92
2021/04/28 04:43:47;;;;;;;1999.90;999.90;;;6.00;83.50;;;;;;5035930;28;20108;-92
2021/04/28 04:46:14;;;;;;;1999.90;999.90;;;6.00;83.60;;;;;;5035378;28;20095;-92
2021/04/28 04:48:42;;;;;;;1999.90;999.90;;;6.00;84.00;;;;;;5035413;28;20538;-91
2021/04/28 04:51:09;;;;;;;1999.90;999.90;;;6.00;83.60;;;;;;5030695;28;20060;-92
2021/04/28 04:53:37;;;;;;;1999.90;999.90;;;6.00;83.70;;;;;;5035528;28;20045;-92
2021/04/28 04:56:05;;;;;;;1999.90;999.90;;;6.00;83.50;;;;;;5035246;28;20079;-92
2021/04/28 04:58:32;;;;;;;1999.90;999.90;;;6.00;83.70;;;;;;5035611;28;20057;-92
2021/04/28 05:00:59;;;;;;;1999.90;999.90;;;6.00;83.50;;;;;;5036516;28;20132;-91
2021/04/28 05:03:26;;;;;;;1999.90;999.90;;;6.10;83.10;;;;;;5036272;28;20499;-92
2021/04/28 05:05:54;;;;;;;1999.90;999.90;;;6.00;83.30;;;;;;5051641;28;20072;-91
2021/04/28 05:08:21;;;;;;;1999.90;999.90;;;6.00;83.30;;;;;;5035603;28;20087;-92
2021/04/28 05:10:48;;;;;;;1999.90;999.90;;;6.00;83.70;;;;;;5036257;28;20061;-91
2021/04/28 05:13:15;;;;;;;1999.90;999.90;;;6.00;83.80;;;;;;5035497;28;20088;-92
2021/04/28 05:15:42;;;;;;;1999.90;999.90;;;6.00;83.80;;;;;;5034926;28;20053;-92
2021/04/28 05:18:09;;;;;;;1999.90;999.90;;;6.10;84.00;;;;;;5035336;28;20053;-92
2021/04/28 05:20:36;;;;;;;1999.90;999.90;;;6.10;84.00;;;;;;5035570;28;20060;-92
2021/04/28 05:23:04;;;;;;;1999.90;999.90;;;6.10;84.30;;;;;;5035380;28;20057;-93
2021/04/28 05:25:32;;;;;;;1999.90;999.90;;;6.10;84.00;;;;;;5035437;28;20557;-93
2021/04/28 05:27:59;;;;;;;1999.90;999.90;;;6.10;83.60;;;;;;5036442;28;20180;-92
2021/04/28 05:30:26;;;;;;;1999.90;999.90;;;6.10;84.10;;;;;;5035474;28;20171;-91
2021/04/28 05:32:53;;;;;;;1999.90;999.90;;;6.10;83.90;;;;;;5035379;28;20076;-92
2021/04/28 05:35:21;;;;;;;1999.90;999.90;;;6.10;83.50;;;;;;5036029;28;20460;-92
2021/04/28 05:37:48;;;;;;;1999.90;999.90;;;6.10;83.60;;;;;;5035541;28;20061;-93
2021/04/28 05:40:18;;;;;;;1999.90;999.90;;;6.10;83.80;;;;;;5032790;28;20107;-89
2021/04/28 05:42:45;;;;;;;1999.90;999.90;;;6.10;83.60;;;;;;5033523;28;20132;-89
2021/04/28 05:45:13;;;;;;;1999.90;999.90;;;6.20;83.60;;;;;;5034255;28;20140;-89
2021/04/28 05:47:41;;;;;;;1999.90;999.90;;;6.20;83.10;;;;;;5034028;28;20052;-89
2021/04/28 05:50:11;;;;;;;1999.90;999.90;;;6.30;83.60;;;;;;5033832;28;20057;-90
2021/04/28 05:52:38;;;;;;;1999.90;999.90;;;6.30;82.90;;;;;;5033624;28;20050;-89
2021/04/28 05:55:07;;;;;;;1999.90;999.90;;;6.30;82.90;;;;;;5035897;28;20069;-93
2021/04/28 05:57:37;;;;;;;1999.90;999.90;;;6.40;82.20;;;;;;5036538;28;20054;-94
2021/04/28 06:00:06;;;;;;;1999.90;999.90;;;6.40;82.10;;;;;;5035185;28;20099;-94
2021/04/28 06:02:34;;;;;;;1999.90;999.90;;;6.40;82.40;;;;;;5035413;28;20072;-93
2021/04/28 06:05:01;;;;;;;1999.90;999.90;;;6.40;82.20;;;;;;5035159;28;20064;-94
2021/04/28 06:07:28;;;;;;;1999.90;999.90;;;6.50;81.90;;;;;;5035023;28;20168;-94
2021/04/28 06:09:55;;;;;;;1999.90;999.90;;;6.50;81.80;;;;;;5035259;28;20506;-96
2021/04/28 06:12:22;;;;;;;1999.90;999.90;;;6.50;81.40;;;;;;5035512;28;20065;-93
2021/04/28 06:14:50;;;;;;;1999.90;999.90;;;6.50;81.80;;;;;;5035064;28;20110;-95
2021/04/28 06:17:17;;;;;;;1999.90;999.90;;;6.60;81.50;;;;;;5035685;28;20145;-93
2021/04/28 06:19:44;;;;;;;1999.90;999.90;;;6.60;81.90;;;;;;5035164;28;20053;-94
2021/04/28 06:22:11;;;;;;;1999.90;999.90;;;6.60;81.40;;;;;;5035160;28;20045;-92
2021/04/28 06:24:38;;;;;;;1999.90;999.90;;;6.70;81.70;;;;;;5035097;28;20458;-94
2021/04/28 06:27:06;;;;;;;1999.90;999.90;;;6.80;81.60;;;;;;5035604;28;20046;-95
2021/04/28 06:29:33;;;;;;;1999.90;999.90;;;6.90;81.90;;;;;;5035148;28;20057;-93
2021/04/28 06:32:01;;;;;;;1999.90;999.90;;;6.90;81.80;;;;;;5035014;28;20049;-94
2021/04/28 06:34:29;;;;;;;1999.90;999.90;;;7.00;81.40;;;;;;5034965;28;20123;-94
2021/04/28 06:36:56;;;;;;;1999.90;999.90;;;7.10;81.70;;;;;;5037894;28;20045;-94
2021/04/28 06:39:23;;;;;;;1999.90;999.90;;;7.10;80.90;;;;;;5039616;28;20057;-89
2021/04/28 06:41:50;;;;;;;1999.90;999.90;;;7.10;81.10;;;;;;5037188;28;20076;-89
2021/04/28 06:44:17;;;;;;;1999.90;999.90;;;7.20;81.10;;;;;;5037130;28;20164;-89
2021/04/28 06:46:44;;;;;;;1999.90;999.90;;;7.30;81.00;;;;;;5037297;28;20073;-89
2021/04/28 06:49:11;;;;;;;1999.90;999.90;;;7.30;80.50;;;;;;5028723;28;20050;-89
2021/04/28 06:51:38;;;;;;;1999.90;999.90;;;7.40;81.10;;;;;;5036419;28;20049;-90
2021/04/28 06:54:06;;;;;;;1999.90;999.90;;;7.50;80.60;;;;;;5037068;28;20053;-89
2021/04/28 06:56:33;;;;;;;1999.90;999.90;;;7.50;80.10;;;;;;5029009;28;20133;-88
2021/04/28 06:59:00;;;;;;;1999.90;999.90;;;7.60;81.10;;;;;;5036943;28;20140;-89
2021/04/28 07:01:27;;;;;;;1999.90;999.90;;;7.70;81.30;;;;;;5038544;28;20049;-89
2021/04/28 07:03:54;;;;;;;1999.90;999.90;;;7.80;80.20;;;;;;5038166;28;20045;-90
2021/04/28 07:06:22;;;;;;;1999.90;999.90;;;7.90;80.90;;;;;;5038195;28;20088;-90
2021/04/28 07:08:49;;;;;;;1999.90;999.90;;;8.00;81.10;;;;;;5037708;28;20111;-90
2021/04/28 07:11:17;;;;;;;1999.90;999.90;;;8.10;81.00;;;;;;5037426;28;20076;-90
2021/04/28 07:13:44;;;;;;;1999.90;999.90;;;8.30;80.10;;;;;;5037043;28;20057;-90
2021/04/28 07:16:11;;;;;;;1999.90;999.90;;;8.30;79.70;;;;;;5037667;28;20052;-90
2021/04/28 07:18:38;;;;;;;1999.90;999.90;;;8.40;80.10;;;;;;5036941;28;20452;-90
2021/04/28 07:21:05;;;;;;;1999.90;999.90;;;8.50;80.00;;;;;;5038670;28;20457;-90
2021/04/28 07:23:33;;;;;;;1999.90;999.90;;;8.70;79.50;;;;;;5028930;28;20061;-90
2021/04/28 07:26:01;;;;;;;1999.90;999.90;;;8.80;79.40;;;;;;5034798;28;20051;-90
2021/04/28 07:28:28;;;;;;;1999.90;999.90;;;8.90;78.40;;;;;;5024937;28;20076;-90
2021/04/28 07:30:55;;;;;;;1999.90;999.90;;;9.00;77.40;;;;;;5035746;28;20140;-90
2021/04/28 07:33:22;;;;;;;1999.90;999.90;;;9.10;77.80;;;;;;5029232;28;20072;-90
2021/04/28 07:35:49;;;;;;;1999.90;999.90;;;9.20;76.50;;;;;;5041143;28;20049;-90
2021/04/28 07:38:16;;;;;;;1999.90;999.90;;;9.30;77.20;;;;;;5037639;28;20064;-90
2021/04/28 07:40:45;;;;;;;1999.90;999.90;;;9.40;77.20;;;;;;5041435;28;20060;-91
2021/04/28 07:43:12;;;;;;;1999.90;999.90;;;9.50;77.10;;;;;;5034987;28;20141;-92
2021/04/28 07:45:39;;;;;;;1999.90;999.90;;;9.60;75.80;;;;;;5037276;28;20133;-91
2021/04/28 07:48:09;;;;;;;1999.90;999.90;;;9.80;75.20;;;;;;5040011;28;20057;-91
2021/04/28 07:50:37;;;;;;;1999.90;999.90;;;9.90;75.60;;;;;;5036514;28;20101;-91
2021/04/28 07:53:04;;;;;;;1999.90;999.90;;;10.00;74.20;;;;;;5030629;28;20049;-91
2021/04/28 07:55:31;;;;;;;1999.90;999.90;;;10.10;74.00;;;;;;5036263;28;20053;-91
2021/04/28 07:57:59;;;;;;;1999.90;999.90;;;10.30;75.00;;;;;;5030243;28;20115;-91
2021/04/28 08:00:28;;;;;;;1999.90;999.90;;;10.40;75.00;;;;;;5030431;28;20059;-92
2021/04/28 08:02:55;;;;;;;1999.90;999.90;;;10.60;72.00;;;;;;5034201;28;20072;-91
2021/04/28 08:05:23;;;;;;;1999.90;999.90;;;10.70;72.20;;;;;;5036065;28;20075;-91
2021/04/28 08:07:50;;;;;;;1999.90;999.90;;;10.80;72.40;;;;;;5037271;28;20129;-96
2021/04/28 08:10:18;;;;;;;1999.90;999.90;;;11.00;73.00;;;;;;5037263;28;20054;-96
2021/04/28 08:12:45;;;;;;;1999.90;999.90;;;11.20;71.20;;;;;;5037282;28;20061;-96
2021/04/28 08:15:14;;;;;;;1999.90;999.90;;;11.30;69.40;;;;;;5036795;28;20081;-96
2021/04/28 08:17:42;;;;;;;1999.90;999.90;;;11.40;68.50;;;;;;5037498;28;20115;-96
2021/04/28 08:20:11;;;;;;;1999.90;999.90;;;11.50;68.00;;;;;;5037222;28;20053;-96
2021/04/28 08:22:39;;;;;;;1999.90;999.90;;;11.60;67.60;;;;;;5037603;28;20072;-96
2021/04/28 08:25:09;;;;;;;1999.90;999.90;;;11.80;67.90;;;;;;5037682;28;20061;-95
2021/04/28 08:27:36;;;;;;;1999.90;999.90;;;11.90;66.70;;;;;;5036901;28;20056;-96
2021/04/28 08:30:04;;;;;;;1999.90;999.90;;;11.90;65.50;;;;;;5036837;28;20080;-96
2021/04/28 08:32:33;;;;;;;1999.90;999.90;;;12.00;64.70;;;;;;5037031;28;20045;-96
2021/04/28 08:35:00;;;;;;;1999.90;999.90;;;12.00;65.10;;;;;;5037556;28;20053;-96
2021/04/28 08:37:27;;;;;;;1999.90;999.90;;;12.10;65.20;;;;;;5036753;28;20049;-95
2021/04/28 08:39:54;;;;;;;1999.90;999.90;;;12.20;65.20;;;;;;5036700;28;20050;-96
2021/04/28 08:42:21;;;;;;;1999.90;999.90;;;12.20;64.00;;;;;;5036779;28;20050;-95
2021/04/28 08:44:49;;;;;;;1999.90;999.90;;;12.20;64.40;;;;;;5036789;28;20073;-96
2021/04/28 08:47:16;;;;;;;1999.90;999.90;;;12.30;63.90;;;;;;5036765;28;20042;-96
2021/04/28 08:49:44;;;;;;;1999.90;999.90;;;12.40;64.10;;;;;;5036829;28;20064;-96
2021/04/28 08:52:14;;;;;;;1999.90;999.90;;;12.40;62.80;;;;;;5036533;28;20107;-96
2021/04/28 08:54:47;;;;;;;1999.90;999.90;;;12.40;62.60;;;;;;5037760;28;20457;-96
2021/04/28 08:57:14;;;;;;;1999.90;999.90;;;12.50;63.10;;;;;;5038556;28;20046;-95
2021/04/28 08:59:42;;;;;;;1999.90;999.90;;;12.60;62.70;;;;;;5036476;28;20088;-96
2021/04/28 09:02:13;;;;;;;1999.90;999.90;;;12.60;62.50;;;;;;5039271;28;20045;-96
2021/04/28 09:04:40;;;;;;;1999.90;999.90;;;12.60;62.30;;;;;;5038946;28;20119;-95
2021/04/28 09:07:08;;;;;;;1999.90;999.90;;;12.70;62.50;;;;;;5038137;28;20075;-96
2021/04/28 09:09:35;;;;;;;1999.90;999.90;;;12.80;62.70;;;;;;5036079;28;20418;-95
2021/04/28 09:12:03;;;;;;;1999.90;999.90;;;12.90;62.50;;;;;;5036586;28;20147;-96
2021/04/28 09:14:32;;;;;;;1999.90;999.90;;;13.10;62.10;;;;;;5035960;28;20061;-95
2021/04/28 09:17:02;;;;;;;1999.90;999.90;;;13.20;62.70;;;;;;5036258;28;20050;-96
2021/04/28 09:19:34;;;;;;;1999.90;999.90;;;13.20;62.50;;;;;;5036365;28;20049;-96
2021/04/28 09:22:04;;;;;;;1999.90;999.90;;;13.30;62.90;;;;;;5037229;28;20428;-96
2021/04/28 09:24:34;;;;;;;1999.90;999.90;;;13.30;63.50;;;;;;5036888;28;20060;-96
2021/04/28 09:27:02;;;;;;;1999.90;999.90;;;13.20;63.40;;;;;;5036966;28;20496;-96
2021/04/28 09:29:32;;;;;;;1999.90;999.90;;;13.30;64.10;;;;;;5039711;28;20053;-96
2021/04/28 09:32:07;;;;;;;1999.90;999.90;;;13.50;66.20;;;;;;5053192;28;20037;-96
2021/04/28 09:34:36;;;;;;;1999.90;999.90;;;13.60;66.50;;;;;;5053498;28;20088;-96
2021/04/28 09:37:13;;;;;;;1999.90;999.90;;;13.70;66.30;;;;;;5042891;28;20049;-95
2021/04/28 09:39:47;;;;;;;1999.90;999.90;;;13.70;67.10;;;;;;5038775;28;20055;-96
2021/04/28 09:42:16;;;;;;;1999.90;999.90;;;13.70;67.00;;;;;;5036952;28;20530;-96
2021/04/28 09:44:48;;;;;;;1999.90;999.90;;;13.80;67.50;;;;;;5037287;28;20103;-95
2021/04/28 09:47:19;;;;;;;1999.90;999.90;;;13.90;66.50;;;;;;5035711;28;20511;-96
2021/04/28 09:49:58;;;;;;;1999.90;999.90;;;14.00;66.00;;;;;;5036725;28;20053;-96
2021/04/28 09:52:42;;;;;;;1999.90;999.90;;;14.00;65.90;;;;;;5036167;28;20059;-96
2021/04/28 09:55:12;;;;;;;1999.90;999.90;;;14.10;65.90;;;;;;5036444;28;20053;-96
2021/04/28 09:57:41;;;;;;;1999.90;999.90;;;14.10;66.50;;;;;;5035701;28;20435;-95
2021/04/28 10:00:17;;;;;;;1999.90;999.90;;;14.10;65.00;;;;;;5036535;28;20057;-96
2021/04/28 10:02:51;;;;;;;1999.90;999.90;;;14.20;65.80;;;;;;5035379;28;20096;-96
2021/04/28 10:05:20;;;;;;;;;;;14.20;64.90;;;;;;5035886;28;20057;-96
2021/04/28 10:07:52;;;;;;;1999.90;999.90;;;14.20;64.50;;;;;;5036437;28;19948;-96
2021/04/28 10:10:22;;;;;;;1999.90;999.90;;;14.20;64.10;;;;;;5036249;28;20057;-96
2021/04/28 10:12:49;;;;;;;1999.90;999.90;;;14.20;63.90;;;;;;5035473;28;20057;-96
2021/04/28 10:15:18;;;;;;;1999.90;999.90;;;14.20;64.00;;;;;;5035757;28;20057;-95
2021/04/28 10:17:46;;;;;;;1999.90;999.90;;;14.30;65.00;;;;;;5034729;28;20075;-95
2021/04/28 10:20:15;;;;;;;1999.90;999.90;;;14.40;65.50;;;;;;5035336;28;20575;-95
2021/04/28 10:22:44;;;;;;;1999.90;999.90;;;14.40;64.80;;;;;;5036586;28;20053;-95
2021/04/28 10:25:13;;;;;;;1999.90;999.90;;;14.50;64.50;;;;;;5035483;28;20107;-95
2021/04/28 10:27:44;;;;;;;1999.90;999.90;;;14.40;64.90;;;;;;5035687;28;20053;-96
2021/04/28 10:30:15;;;;;;;1999.90;999.90;;;14.40;64.60;;;;;;5035720;28;20053;-95
2021/04/28 10:32:44;;;;;;;1999.90;999.90;;;14.60;66.10;;;;;;5035477;28;20112;-95
2021/04/28 10:35:14;;;;;;;1999.90;999.90;;;14.70;68.40;;;;;;5035299;28;20053;-95
2021/04/28 10:37:44;;;;;;;1999.90;999.90;;;14.80;65.80;;;;;;5035188;28;20056;-95
2021/04/28 10:40:13;;;;;;;1999.90;999.90;;;14.90;65.60;;;;;;5035355;28;20056;-95
2021/04/28 10:42:42;;;;;;;1999.90;999.90;;;14.90;66.00;;;;;;5034523;28;20091;-95
2021/04/28 10:45:12;;;;;;;1999.90;999.90;;;14.90;65.60;;;;;;5035639;28;20057;-96
2021/04/28 10:47:41;;;;;;;1999.90;999.90;;;15.10;66.90;;;;;;5034752;28;20530;-95
2021/04/28 10:50:19;;;;;;;1999.90;999.90;;;15.10;65.60;;;;;;5034690;28;20491;-95
2021/04/28 10:52:59;;;;;;;1999.90;999.90;;;15.20;65.60;;;;;;5034651;28;20472;-95
2021/04/28 10:55:58;;;;;;;1999.90;999.90;;;15.30;64.10;;;;;;5035227;28;20133;-95
2021/04/28 10:58:51;;;;;;;1999.90;999.90;;;15.30;65.20;;;;;;5035792;28;20057;-96
2021/04/28 11:01:35;;;;;;;1999.90;999.90;;;15.40;65.10;;;;;;5036169;28;20064;-96
2021/04/28 11:04:10;;;;;;;1999.90;999.90;;;15.60;65.20;;;;;;5037115;28;20378;-95
2021/04/28 11:06:42;;;;;;;1999.90;999.90;;;15.80;62.90;;;;;;5036802;28;20045;-96
2021/04/28 11:09:17;;;;;;;1999.90;999.90;;;15.90;62.80;;;;;;5036620;28;20053;-96
2021/04/28 11:11:54;;;;;;;1999.90;999.90;;;16.10;63.90;;;;;;5037623;28;20049;-96
2021/04/28 11:14:47;;;;;;;1999.90;999.90;;;16.30;65.40;;;;;;5036489;28;20056;-95
2021/04/28 11:17:26;;;;;;;1999.90;999.90;;;16.50;61.10;;;;;;5036277;28;20132;-96
2021/04/28 11:19:58;;;;;;;1999.90;999.90;;;16.70;62.50;;;;;;5036467;28;20069;-96
2021/04/28 11:22:30;;;;;;;1999.90;999.90;;;16.80;57.50;;;;;;5038902;28;20049;-95
2021/04/28 11:25:16;;;;;;;1999.90;999.90;;;16.70;56.20;;;;;;5039554;28;20061;-96
2021/04/28 11:27:46;;;;;;;1999.90;999.90;;;16.80;56.60;;;;;;5039962;28;20049;-96
2021/04/28 11:30:30;;;;;;;1999.90;999.90;;;17.00;58.30;;;;;;5038893;28;20057;-96
2021/04/28 11:33:30;;;;;;;1999.90;999.90;;;17.10;56.90;;;;;;5040085;28;20059;-96
2021/04/28 11:36:15;;;;;;;1999.90;999.90;;;17.40;58.50;;;;;;5033915;28;20058;-96
2021/04/28 11:38:48;;;;;;;1999.90;999.90;;;17.60;57.60;;;;;;5038938;28;20058;-96
2021/04/28 11:41:17;;;;;;;1999.90;999.90;;;17.70;55.30;;;;;;5038050;28;20049;-96
2021/04/28 11:43:47;;;;;;;1999.90;999.90;;;17.80;53.50;;;;;;5038347;28;20055;-96
2021/04/28 11:46:17;;;;;;;1999.90;999.90;;;17.80;54.70;;;;;;5039807;28;20060;-96
2021/04/28 11:48:47;;;;;;;1999.90;999.90;;;18.00;53.30;;;;;;5046725;28;20049;-96
2021/04/28 11:51:22;;;;;;;;;;;18.10;52.40;;;;;;5039567;28;20072;-96
2021/04/28 11:53:52;;;;;;;1999.90;999.90;;;18.30;54.60;;;;;;5042713;28;19921;-96
2021/04/28 11:56:36;;;;;;;1999.90;999.90;;;18.40;52.70;;;;;;5039928;28;20045;-96
2021/04/28 11:59:05;;;;;;;1999.90;999.90;;;18.50;52.20;;;;;;5041008;28;20053;-96
2021/04/28 12:01:58;;;;;;;1999.90;999.90;;;18.40;50.70;;;;;;5042044;28;20115;-96
2021/04/28 12:04:30;;;;;;;1999.90;999.90;;;18.40;51.60;;;;;;5026935;28;20049;-96
2021/04/28 12:06:58;;;;;;;1999.90;999.90;;;18.50;52.00;;;;;;5039379;28;20456;-96
2021/04/28 12:09:38;;;;;;;1999.90;999.90;;;18.60;52.10;;;;;;5038957;28;20490;-96
2021/04/28 12:12:17;;;;;;;1999.90;999.90;;;18.60;51.40;;;;;;5039344;28;20057;-96
2021/04/28 12:14:47;;;;;;;1999.90;999.90;;;18.60;50.30;;;;;;5049103;28;20077;-96
2021/04/28 12:17:19;;;;;;;1999.90;999.90;;;18.70;50.90;;;;;;5041908;28;20046;-96